createdAt,value
2022-08-05T04:47:22.087Z,22.93
2022-08-05T04:52:27.614Z,23.14
2022-08-05T04:57:37.279Z,23.30
2022-08-05T05:02:43.126Z,23.49
2022-08-05T05:07:56.261Z,23.64
2022-08-05T05:13:03.903Z,23.92
2022-08-05T05:18:07.043Z,24.27
2022-08-05T05:23:19.858Z,24.38
2022-08-05T05:28:22.469Z,24.39
2022-08-05T05:33:27.197Z,24.43
2022-08-05T05:38:30.028Z,24.42
2022-08-05T05:43:58.354Z,24.55
2022-08-05T05:48:54.966Z,24.65
2022-08-05T05:53:59.966Z,24.81
2022-08-05T17:39:34.979Z,24.71
2022-08-05T17:44:37.582Z,24.44
2022-08-05T17:49:59.943Z,24.22
2022-08-05T17:55:03.098Z,24.04
2022-08-05T18:00:07.195Z,23.59
2022-08-05T18:05:09.733Z,23.51
2022-08-05T18:10:20.752Z,23.25
2022-08-05T18:15:25.118Z,22.95
2022-08-05T18:20:29.371Z,22.84
2022-08-05T18:25:34.091Z,22.74
2022-08-05T18:30:39.030Z,22.57
2022-08-05T18:35:59.708Z,22.62
2022-08-05T18:41:53.343Z,22.58
2022-08-05T18:46:29.852Z,22.44
2022-08-05T18:52:04.969Z,22.42
2022-08-05T18:57:15.380Z,22.49
2022-08-05T19:02:28.616Z,22.49
2022-08-05T19:07:42.325Z,22.35
2022-08-05T19:12:49.073Z,22.35
2022-08-05T19:18:08.754Z,22.26
2022-08-05T19:24:03.825Z,22.18
2022-08-05T19:28:42.325Z,22.07
2022-08-05T19:33:48.358Z,21.96
2022-08-05T19:39:01.054Z,21.91
2022-08-05T19:44:13.047Z,21.80
2022-08-05T19:49:16.950Z,21.81
2022-08-05T19:54:27.166Z,21.80
2022-08-05T20:00:00.335Z,21.79
2022-08-05T20:04:58.709Z,21.70
2022-08-05T20:10:02.488Z,21.56
2022-08-05T20:15:14.247Z,21.34
2022-08-05T20:20:16.500Z,21.19
2022-08-05T20:25:18.851Z,21.13
2022-08-05T20:30:27.504Z,21.00
2022-08-05T20:35:29.935Z,20.99
2022-08-05T20:40:35.460Z,20.80
2022-08-05T20:45:56.203Z,20.76
2022-08-05T20:50:59.385Z,20.76
2022-08-05T20:56:10.434Z,20.72
2022-08-05T21:01:12.775Z,20.75
2022-08-05T21:06:27.712Z,20.80
2022-08-05T21:12:09.146Z,20.59
2022-08-05T21:17:12.633Z,20.67
2022-08-05T21:22:21.633Z,20.62
2022-08-05T21:27:27.461Z,20.56
2022-08-05T21:32:48.317Z,20.44
2022-08-05T21:37:52.987Z,20.35
2022-08-05T21:42:55.846Z,20.36
